Time;durP1;ratioP1;P1;durP2;ratioP2;P2;SDS_P1;SDS_P2;PMS_P1;PMS_P2;Temp;Humidity;BMP_temperature;BMP_pressure;BME280_temperature;BME280_humidity;BME280_pressure;Samples;Min_cycle;Max_cycle;Signal;HPM_P1;HPM_P2
2022/05/01 00:00:08;;;;;;;34.57;29.07;;;8.80;99.90;;;;;;5102301;28;20197;-77
2022/05/01 00:02:35;;;;;;;37.50;29.33;;;8.80;99.90;;;;;;5102643;28;20235;-77
2022/05/01 00:05:02;;;;;;;34.80;30.30;;;8.90;99.90;;;;;;5103534;28;20194;-76
2022/05/01 00:07:28;;;;;;;32.13;28.27;;;8.90;99.90;;;;;;5099322;28;20197;-76
2022/05/01 00:09:55;;;;;;;33.03;28.47;;;8.90;99.90;;;;;;5097976;28;20204;-76
2022/05/01 00:12:22;;;;;;;35.47;29.33;;;8.80;99.90;;;;;;5097224;28;20231;-76
2022/05/01 00:14:51;;;;;;;36.80;30.20;;;8.70;99.90;;;;;;5099000;28;20228;-76
2022/05/01 00:17:18;;;;;;;35.73;29.40;;;8.80;99.90;;;;;;5097265;28;20203;-76
2022/05/01 00:19:45;;;;;;;38.30;30.77;;;8.80;99.90;;;;;;5096179;28;20227;-76
2022/05/01 00:22:11;;;;;;;37.80;31.20;;;8.80;99.90;;;;;;5096860;28;20212;-76
2022/05/01 00:24:38;;;;;;;36.37;30.80;;;8.70;99.90;;;;;;5094543;28;20602;-76
2022/05/01 00:27:05;;;;;;;36.93;29.83;;;8.80;99.90;;;;;;5076951;28;20196;-76
2022/05/01 00:29:32;;;;;;;39.70;31.23;;;8.70;99.90;;;;;;5095761;28;20679;-76
2022/05/01 00:32:02;;;;;;;37.87;30.63;;;8.70;99.90;;;;;;5096517;28;20196;-76
2022/05/01 00:37:14;;;;;;;40.47;31.53;;;8.70;99.90;;;;;;5103641;28;20279;-77
2022/05/01 00:39:41;;;;;;;38.57;31.30;;;8.70;99.90;;;;;;5105687;28;20221;-76
2022/05/01 00:42:08;;;;;;;35.13;30.40;;;8.60;99.90;;;;;;5105634;28;20703;-76
2022/05/01 00:44:34;;;;;;;41.73;33.10;;;8.60;99.90;;;;;;5104459;28;20204;-77
2022/05/01 00:47:02;;;;;;;38.97;32.07;;;8.70;99.90;;;;;;5104415;28;20196;-76
2022/05/01 00:49:29;;;;;;;42.20;32.93;;;8.70;99.90;;;;;;5103601;28;20200;-76
2022/05/01 00:51:58;;;;;;;37.50;31.37;;;8.60;99.90;;;;;;5104246;28;20196;-76
2022/05/01 00:54:27;;;;;;;39.57;31.57;;;8.60;99.90;;;;;;5102144;28;20283;-76
2022/05/01 00:56:55;;;;;;;39.67;32.43;;;8.50;99.90;;;;;;5098640;28;20201;-76
2022/05/01 00:59:22;;;;;;;40.80;33.80;;;8.50;99.90;;;;;;5095335;28;20258;-76
2022/05/01 01:01:51;;;;;;;41.13;32.40;;;8.50;99.90;;;;;;5095419;28;20273;-76
2022/05/01 01:04:20;;;;;;;40.03;32.60;;;8.50;99.90;;;;;;5095107;28;20196;-76
2022/05/01 01:06:48;;;;;;;41.43;34.20;;;8.50;99.90;;;;;;5095906;28;20196;-76
2022/05/01 01:09:16;;;;;;;43.63;34.47;;;8.50;99.90;;;;;;5095653;28;20525;-77
2022/05/01 01:11:43;;;;;;;40.20;33.97;;;8.60;99.90;;;;;;5095999;28;20655;-76
2022/05/01 01:14:11;;;;;;;41.03;33.77;;;8.60;99.90;;;;;;5096716;28;20200;-76
2022/05/01 01:16:39;;;;;;;41.50;34.17;;;8.60;99.90;;;;;;5097288;28;20253;-76
2022/05/01 01:19:09;;;;;;;45.90;33.77;;;8.60;99.90;;;;;;5097271;28;20192;-76
2022/05/01 01:21:37;;;;;;;39.83;33.10;;;8.60;99.90;;;;;;5098520;28;20200;-76
2022/05/01 01:24:09;;;;;;;43.03;34.43;;;8.70;99.90;;;;;;5097401;28;20283;-77
2022/05/01 01:26:36;;;;;;;39.50;33.60;;;8.70;99.90;;;;;;5094292;28;20204;-77
2022/05/01 01:31:40;;;;;;;40.80;33.53;;;8.70;99.90;;;;;;5094524;28;20249;-77
2022/05/01 01:31:52;;;;;;;42.03;32.73;;;8.70;99.90;;;;;;5094833;28;20200;-77
2022/05/01 01:34:22;;;;;;;44.30;34.13;;;8.60;99.90;;;;;;5094451;28;20196;-77
2022/05/01 01:36:51;;;;;;;42.73;33.87;;;8.60;99.90;;;;;;5096592;28;20206;-77
2022/05/01 01:39:19;;;;;;;41.50;33.40;;;8.50;99.90;;;;;;5097049;28;20663;-77
2022/05/01 01:41:48;;;;;;;43.83;35.63;;;8.60;99.90;;;;;;5096809;28;20196;-76
2022/05/01 01:44:15;;;;;;;46.27;36.80;;;8.50;99.90;;;;;;5097778;28;20208;-77
2022/05/01 01:46:42;;;;;;;44.33;35.17;;;8.40;99.90;;;;;;5097702;28;20222;-77
2022/05/01 01:49:10;;;;;;;50.53;36.80;;;8.40;99.90;;;;;;5097228;28;20192;-77
2022/05/01 01:51:37;;;;;;;46.70;36.30;;;8.40;99.90;;;;;;5097205;28;20200;-77
2022/05/01 01:54:07;;;;;;;45.50;36.90;;;8.30;99.90;;;;;;5097641;28;20291;-76
2022/05/01 01:56:34;;;;;;;46.10;37.17;;;8.40;99.90;;;;;;5096188;28;20192;-77
2022/05/01 01:59:00;;;;;;;46.37;37.13;;;8.30;99.90;;;;;;5094756;28;20234;-77
2022/05/01 02:01:27;;;;;;;45.83;36.87;;;8.30;99.90;;;;;;5094504;28;20196;-77
2022/05/01 02:03:54;;;;;;;48.50;36.60;;;8.30;99.90;;;;;;5099132;28;20238;-77
2022/05/01 02:06:21;;;;;;;48.73;37.13;;;8.30;99.90;;;;;;5100480;28;20261;-77
2022/05/01 02:08:48;;;;;;;49.87;37.90;;;8.40;99.90;;;;;;5099624;28;21390;-77
2022/05/01 02:11:17;;;;;;;51.03;38.10;;;8.40;99.90;;;;;;5098256;28;20206;-77
2022/05/01 02:13:43;;;;;;;46.57;36.47;;;8.50;99.90;;;;;;5098418;28;20247;-77
2022/05/01 02:16:10;;;;;;;50.60;37.50;;;8.50;99.90;;;;;;5098560;28;20204;-77
2022/05/01 02:18:37;;;;;;;46.03;35.87;;;8.50;99.90;;;;;;5098551;28;20193;-77
2022/05/01 02:23:48;;;;;;;51.73;37.10;;;8.50;99.90;;;;;;5096516;28;20227;-77
2022/05/01 02:26:14;;;;;;;51.67;37.57;;;8.40;99.90;;;;;;5096807;28;20253;-77
2022/05/01 02:28:42;;;;;;;45.83;37.30;;;8.50;99.90;;;;;;5096863;28;20245;-77
2022/05/01 02:31:09;;;;;;;46.43;36.80;;;8.60;99.90;;;;;;5096942;28;20253;-77
2022/05/01 02:33:36;;;;;;;49.40;36.93;;;8.60;99.90;;;;;;5096891;28;20269;-76
2022/05/01 02:36:05;;;;;;;48.63;35.30;;;8.60;99.90;;;;;;5097635;28;20192;-76
2022/05/01 02:38:33;;;;;;;41.20;35.10;;;8.50;99.90;;;;;;5097223;28;20666;-77
2022/05/01 02:41:00;;;;;;;47.63;35.80;;;8.50;99.90;;;;;;5101237;28;20204;-78
2022/05/01 02:43:27;;;;;;;43.93;35.20;;;8.50;99.90;;;;;;5105639;28;20216;-79
2022/05/01 02:45:55;;;;;;;43.50;35.00;;;8.50;99.90;;;;;;5107026;28;20620;-78
2022/05/01 02:48:23;;;;;;;45.60;36.77;;;8.50;99.90;;;;;;5108692;28;20192;-78
2022/05/01 02:50:50;;;;;;;46.60;37.10;;;8.50;99.90;;;;;;5109400;28;20204;-78
2022/05/01 02:53:16;;;;;;;45.63;36.17;;;8.60;99.90;;;;;;5109175;28;20196;-78
2022/05/01 02:55:43;;;;;;;41.70;34.13;;;8.60;99.90;;;;;;5109883;28;20225;-78
2022/05/01 02:58:10;;;;;;;44.43;34.90;;;8.70;99.90;;;;;;5104491;28;20192;-78
2022/05/01 03:00:40;;;;;;;45.50;35.67;;;8.70;99.90;;;;;;5102247;28;20196;-77
2022/05/01 03:03:08;;;;;;;42.20;35.03;;;8.70;99.90;;;;;;5102480;28;20232;-76
2022/05/01 03:05:35;;;;;;;42.67;34.33;;;8.60;99.90;;;;;;5102422;28;20601;-78
2022/05/01 03:08:02;;;;;;;46.57;35.50;;;8.60;99.90;;;;;;5101412;28;20197;-77
2022/05/01 03:10:29;;;;;;;42.70;34.33;;;8.70;99.90;;;;;;5102306;28;20203;-77
2022/05/01 03:12:55;;;;;;;45.00;35.17;;;8.60;99.90;;;;;;5101728;28;20236;-77
2022/05/01 03:15:24;;;;;;;39.50;33.10;;;8.60;99.90;;;;;;5102212;28;20258;-77
2022/05/01 03:23:20;;;;;;;42.10;34.73;;;8.50;99.90;;;;;;5102044;28;20740;-77
2022/05/01 03:25:47;;;;;;;41.70;35.03;;;8.60;99.90;;;;;;5099979;28;20200;-78
2022/05/01 03:28:14;;;;;;;40.20;33.30;;;8.60;99.90;;;;;;5100804;28;20200;-77
2022/05/01 03:30:40;;;;;;;43.57;34.00;;;8.60;99.90;;;;;;5098721;28;20192;-77
2022/05/01 03:33:07;;;;;;;42.50;34.57;;;8.50;99.90;;;;;;5097330;28;20200;-77
2022/05/01 03:35:36;;;;;;;40.90;33.67;;;8.60;99.90;;;;;;5097009;28;20249;-77
2022/05/01 03:38:06;;;;;;;43.10;33.47;;;8.60;99.90;;;;;;5096868;28;20237;-77
2022/05/01 03:40:35;;;;;;;41.10;33.00;;;8.70;99.90;;;;;;5096767;28;20199;-76
2022/05/01 03:43:02;;;;;;;44.97;34.30;;;8.70;99.90;;;;;;5097369;28;20602;-76
2022/05/01 03:45:28;;;;;;;42.73;33.90;;;8.70;99.90;;;;;;5098179;28;20207;-77
2022/05/01 03:47:55;;;;;;;43.37;35.70;;;8.70;99.90;;;;;;5099516;28;20600;-77
2022/05/01 03:50:22;;;;;;;40.43;34.07;;;8.70;99.90;;;;;;5099823;28;20580;-77
2022/05/01 03:52:51;;;;;;;44.57;34.67;;;8.60;99.90;;;;;;5100175;28;20203;-77
2022/05/01 03:55:17;;;;;;;40.10;33.00;;;8.70;99.90;;;;;;5099749;28;20754;-77
2022/05/01 03:57:44;;;;;;;46.60;34.33;;;8.60;99.90;;;;;;5099997;28;20230;-77
2022/05/01 04:00:18;;;;;;;40.47;34.03;;;8.70;99.90;;;;;;5100197;28;20207;-77
2022/05/01 04:02:45;;;;;;;41.23;33.87;;;8.70;99.90;;;;;;5099145;28;20250;-77
2022/05/01 04:05:13;;;;;;;36.37;31.93;;;8.70;99.90;;;;;;5095331;28;20257;-77
2022/05/01 04:07:40;;;;;;;39.13;32.77;;;8.70;99.90;;;;;;5095352;28;20196;-77
2022/05/01 04:10:09;;;;;;;40.10;32.03;;;8.70;99.90;;;;;;5095221;28;20197;-77
2022/05/01 04:12:37;;;;;;;40.33;32.40;;;8.70;99.90;;;;;;5094794;28;20224;-77
2022/05/01 04:15:07;;;;;;;38.10;30.67;;;8.70;99.90;;;;;;5094893;28;20203;-76
2022/05/01 04:17:37;;;;;;;36.23;32.07;;;8.70;99.90;;;;;;5094900;28;20200;-76
2022/05/01 04:20:05;;;;;;;39.20;31.87;;;8.70;99.90;;;;;;5094825;28;20196;-77
2022/05/01 04:22:37;;;;;;;37.97;32.80;;;8.70;99.90;;;;;;5114638;28;20196;-79
2022/05/01 04:25:06;;;;;;;40.03;33.43;;;8.70;99.90;;;;;;5106281;28;20211;-79
2022/05/01 04:27:34;;;;;;;37.33;31.93;;;8.70;99.90;;;;;;5100262;28;20644;-78
2022/05/01 04:30:01;;;;;;;35.97;31.90;;;8.70;99.90;;;;;;5098594;28;20655;-80
2022/05/01 04:32:28;;;;;;;40.13;33.13;;;8.70;99.90;;;;;;5097282;28;20193;-79
2022/05/01 04:34:54;;;;;;;36.63;31.33;;;8.70;99.90;;;;;;5096374;28;20291;-79
2022/05/01 04:37:22;;;;;;;37.97;31.93;;;8.70;99.90;;;;;;5100575;28;20204;-79
2022/05/01 04:39:49;;;;;;;39.03;32.37;;;8.70;99.90;;;;;;5081121;28;20200;-78
2022/05/01 04:42:17;;;;;;;37.87;32.07;;;8.70;99.90;;;;;;5097768;28;20196;-79
2022/05/01 04:44:45;;;;;;;41.33;31.10;;;8.80;99.90;;;;;;5099216;28;20285;-79
2022/05/01 04:47:12;;;;;;;37.63;32.07;;;8.70;99.90;;;;;;5097304;28;20207;-80
2022/05/01 04:49:39;;;;;;;37.43;31.47;;;8.70;99.90;;;;;;5096874;28;20233;-79
2022/05/01 04:52:06;;;;;;;35.00;30.00;;;8.80;99.90;;;;;;5097021;28;20200;-79
2022/05/01 04:54:33;;;;;;;38.23;31.77;;;8.80;99.90;;;;;;5094934;28;20575;-79
2022/05/01 04:57:09;;;;;;;34.93;29.53;;;8.90;99.90;;;;;;5095343;28;20192;-79
2022/05/01 04:59:36;;;;;;;34.73;30.07;;;8.90;99.90;;;;;;5095219;28;20263;-79
2022/05/01 05:02:05;;;;;;;34.83;29.70;;;8.80;99.90;;;;;;5095289;28;20564;-80
2022/05/01 05:04:31;;;;;;;32.97;29.47;;;8.80;99.90;;;;;;5098075;28;20687;-79
2022/05/01 05:06:58;;;;;;;35.67;29.10;;;8.90;99.90;;;;;;5095298;28;20594;-79
2022/05/01 05:12:10;;;;;;;35.13;29.27;;;9.00;99.90;;;;;;5110717;28;20259;-79
2022/05/01 05:14:37;;;;;;;31.83;28.30;;;9.00;99.90;;;;;;5097457;28;20270;-79
2022/05/01 05:17:09;;;;;;;35.30;28.40;;;9.00;99.90;;;;;;5100177;28;20192;-80
2022/05/01 05:19:36;;;;;;;32.93;28.70;;;9.10;99.90;;;;;;5103767;28;20203;-80
2022/05/01 05:22:03;;;;;;;30.77;27.40;;;9.20;99.90;;;;;;5106557;28;20230;-79
2022/05/01 05:24:30;;;;;;;30.73;27.43;;;9.30;99.90;;;;;;5104455;28;20224;-79
2022/05/01 05:26:58;;;;;;;31.03;26.43;;;9.30;99.90;;;;;;5098656;28;20200;-81
2022/05/01 05:29:25;;;;;;;30.67;27.43;;;9.30;99.90;;;;;;5097957;28;20606;-79
2022/05/01 05:31:52;;;;;;;30.77;27.00;;;9.30;99.90;;;;;;5097665;28;20680;-79
2022/05/01 05:34:21;;;;;;;33.93;28.07;;;9.30;99.90;;;;;;5099800;28;20184;-80
2022/05/01 05:36:48;;;;;;;30.30;26.90;;;9.40;99.90;;;;;;5098688;28;20271;-79
2022/05/01 05:39:15;;;;;;;31.00;27.37;;;9.40;99.90;;;;;;5102233;28;20288;-80
2022/05/01 05:41:42;;;;;;;29.03;25.67;;;9.40;99.90;;;;;;5101605;28;20253;-79
2022/05/01 05:44:08;;;;;;;29.87;26.67;;;9.50;99.90;;;;;;5107145;28;20199;-80
2022/05/01 05:46:35;;;;;;;29.73;26.50;;;9.60;99.90;;;;;;5114924;28;20226;-80
2022/05/01 05:49:02;;;;;;;28.77;25.20;;;9.70;99.90;;;;;;5119842;28;20176;-83
2022/05/01 05:51:31;;;;;;;29.43;25.73;;;9.70;99.90;;;;;;5120470;28;20188;-81
2022/05/01 05:54:00;;;;;;;31.50;27.37;;;9.60;99.90;;;;;;5121768;28;20199;-80
2022/05/01 05:56:29;;;;;;;30.43;27.07;;;9.50;99.90;;;;;;5122349;28;20234;-82
2022/05/01 05:58:56;;;;;;;32.50;26.83;;;9.50;99.90;;;;;;5120374;28;20211;-81
2022/05/01 06:01:23;;;;;;;34.00;28.60;;;9.60;99.90;;;;;;5113272;28;20283;-81
2022/05/01 06:03:50;;;;;;;32.23;28.40;;;9.60;99.90;;;;;;5121107;28;20242;-81
2022/05/01 06:06:17;;;;;;;35.73;29.90;;;9.30;99.90;;;;;;5122261;28;20200;-80
2022/05/01 06:08:45;;;;;;;33.17;28.67;;;9.30;99.90;;;;;;5118951;28;20208;-80
2022/05/01 06:11:12;;;;;;;33.47;28.63;;;9.40;99.90;;;;;;5118918;28;20196;-82
2022/05/01 06:13:39;;;;;;;32.87;28.43;;;9.50;99.90;;;;;;5120567;28;20227;-81
2022/05/01 06:16:06;;;;;;;35.03;27.47;;;9.60;99.90;;;;;;5119345;28;20211;-81
2022/05/01 06:21:13;;;;;;;31.27;27.50;;;9.70;99.90;;;;;;5101530;28;20536;-79
2022/05/01 06:23:40;;;;;;;31.57;27.43;;;9.70;99.90;;;;;;5097686;28;20220;-78
2022/05/01 06:26:08;;;;;;;29.83;26.60;;;9.80;99.90;;;;;;5101585;28;20184;-80
2022/05/01 06:28:35;;;;;;;28.67;25.47;;;9.70;99.90;;;;;;5105089;28;20196;-78
2022/05/01 06:31:03;;;;;;;31.43;27.30;;;9.70;99.90;;;;;;5101125;28;20200;-79
2022/05/01 06:33:31;;;;;;;29.83;26.07;;;9.80;99.90;;;;;;5106867;28;20196;-79
2022/05/01 06:35:58;;;;;;;29.93;26.73;;;9.80;99.90;;;;;;5100899;28;20254;-79
2022/05/01 06:38:25;;;;;;;28.17;25.17;;;9.80;99.90;;;;;;5097217;28;20192;-78
2022/05/01 06:40:52;;;;;;;31.13;25.83;;;9.90;99.90;;;;;;5099116;28;20200;-81
2022/05/01 06:43:20;;;;;;;26.83;23.87;;;9.90;99.90;;;;;;5100535;28;20575;-79
2022/05/01 06:45:49;;;;;;;26.90;24.07;;;9.90;99.90;;;;;;5099577;28;20287;-79
2022/05/01 06:48:16;;;;;;;27.73;24.00;;;9.80;99.90;;;;;;5097674;28;20197;-79
2022/05/01 06:50:42;;;;;;;26.67;23.80;;;9.70;99.90;;;;;;5097435;28;20197;-79
2022/05/01 06:53:09;;;;;;;28.60;25.20;;;9.70;99.90;;;;;;5096850;28;20200;-79
2022/05/01 06:55:36;;;;;;;26.40;23.60;;;9.80;99.90;;;;;;5096824;28;20234;-78
2022/05/01 06:58:02;;;;;;;28.63;25.47;;;9.90;99.90;;;;;;5096230;28;20196;-77
2022/05/01 07:00:31;;;;;;;26.37;23.50;;;9.90;99.90;;;;;;5097910;28;20249;-76
2022/05/01 07:02:58;;;;;;;26.00;23.20;;;10.00;99.90;;;;;;5097438;28;20205;-78
2022/05/01 07:05:25;;;;;;;27.23;24.33;;;10.00;99.90;;;;;;5099206;28;20224;-79
2022/05/01 07:07:52;;;;;;;26.17;23.37;;;10.00;99.90;;;;;;5099981;28;20283;-78
2022/05/01 07:10:20;;;;;;;26.57;23.77;;;10.10;99.90;;;;;;5094667;28;20333;-78
2022/05/01 07:12:46;;;;;;;25.67;22.97;;;10.10;99.90;;;;;;5097531;28;20273;-80
2022/05/01 07:15:13;;;;;;;25.07;22.37;;;10.10;99.90;;;;;;5107612;28;20224;-81
2022/05/01 07:17:42;;;;;;;28.33;23.83;;;10.20;99.90;;;;;;5096838;28;20208;-79
2022/05/01 07:20:09;;;;;;;27.47;23.90;;;10.00;99.90;;;;;;5095194;28;20204;-78
2022/05/01 07:22:36;;;;;;;27.97;24.60;;;10.00;99.90;;;;;;5094243;28;20257;-77
2022/05/01 07:25:04;;;;;;;28.30;25.07;;;10.10;99.90;;;;;;5093082;28;20228;-76
2022/05/01 07:27:31;;;;;;;32.10;26.83;;;10.10;99.90;;;;;;5096175;28;20204;-80
2022/05/01 07:29:57;;;;;;;28.77;25.77;;;10.20;99.90;;;;;;5097810;28;20253;-80
2022/05/01 07:32:24;;;;;;;28.00;23.13;;;10.30;99.90;;;;;;5095689;28;20192;-80
2022/05/01 07:35:04;;;;;;;27.93;24.60;;;10.20;99.90;;;;;;5097056;28;20201;-77
2022/05/01 07:37:30;;;;;;;26.97;24.13;;;10.30;99.90;;;;;;5097002;28;20200;-77
2022/05/01 07:39:57;;;;;;;28.17;25.17;;;10.40;99.90;;;;;;5101695;28;20197;-79
2022/05/01 07:42:24;;;;;;;26.47;23.77;;;10.50;99.90;;;;;;5104994;28;20197;-79
2022/05/01 07:44:51;;;;;;;26.43;23.73;;;10.60;99.90;;;;;;5103016;28;20228;-77
2022/05/01 07:47:18;;;;;;;25.17;22.47;;;10.80;99.90;;;;;;5104375;28;20199;-79
2022/05/01 07:49:44;;;;;;;26.23;23.50;;;10.80;99.90;;;;;;5186100;22;20272;-80
2022/05/01 07:52:13;;;;;;;27.97;25.03;;;11.00;99.90;;;;;;5131986;28;20199;-79
2022/05/01 07:54:40;;;;;;;25.43;22.83;;;11.10;99.90;;;;;;5124157;28;20196;-80
2022/05/01 07:57:07;;;;;;;24.13;21.63;;;11.20;99.90;;;;;;5124194;28;20203;-78
2022/05/01 07:59:34;;;;;;;24.80;22.20;;;11.30;99.90;;;;;;5124572;28;20294;-77
2022/05/01 08:02:00;;;;;;;26.07;22.53;;;11.40;99.90;;;;;;5126516;28;20272;-80
2022/05/01 08:04:29;;;;;;;25.83;22.60;;;11.50;99.90;;;;;;5117787;28;20196;-83
2022/05/01 08:06:58;;;;;;;23.83;21.33;;;11.40;99.90;;;;;;5138052;28;20220;-81
2022/05/01 08:09:26;;;;;;;26.43;23.00;;;11.50;99.90;;;;;;5128171;28;20655;-79
2022/05/01 08:11:53;;;;;;;25.53;22.20;;;11.70;99.90;;;;;;5131298;28;20202;-80
2022/05/01 08:14:21;;;;;;;24.80;22.17;;;11.70;99.90;;;;;;5127288;28;20245;-79
2022/05/01 08:16:48;;;;;;;24.43;21.90;;;11.70;99.90;;;;;;5124713;28;20355;-79
2022/05/01 08:22:01;;;;;;;24.17;21.57;;;11.50;99.90;;;;;;5121353;28;20222;-78
2022/05/01 08:24:29;;;;;;;25.20;22.60;;;11.50;99.90;;;;;;5122171;28;20219;-81
2022/05/01 08:26:56;;;;;;;25.57;22.83;;;11.30;99.90;;;;;;5121121;28;20192;-78
2022/05/01 08:29:22;;;;;;;24.23;21.73;;;11.40;99.90;;;;;;5120298;28;20191;-80
2022/05/01 08:31:49;;;;;;;24.20;21.70;;;11.80;99.90;;;;;;5118498;28;20197;-81
2022/05/01 08:34:17;;;;;;;24.60;22.30;;;12.00;99.90;;;;;;5117652;28;20507;-77
2022/05/01 08:36:45;;;;;;;22.87;20.57;;;12.50;99.90;;;;;;5116368;28;20196;-79
2022/05/01 08:39:12;;;;;;;24.40;21.90;;;12.50;99.90;;;;;;5115287;28;20286;-77
2022/05/01 08:41:40;;;;;;;23.17;20.80;;;12.30;99.90;;;;;;5117198;28;20195;-78
2022/05/01 08:44:13;;;;;;;22.53;20.23;;;12.40;99.90;;;;;;5119351;28;20659;-78
2022/05/01 08:46:46;;;;;;;23.47;20.97;;;12.60;99.90;;;;;;5115867;28;20200;-78
2022/05/01 08:49:17;;;;;;;24.20;21.80;;;12.60;99.90;;;;;;5114322;28;20417;-79
2022/05/01 08:51:44;;;;;;;25.30;22.60;;;12.90;99.90;;;;;;5114287;28;20203;-78
2022/05/01 08:54:12;;;;;;;22.17;19.87;;;12.90;99.90;;;;;;5114231;28;20259;-78
2022/05/01 08:56:42;;;;;;;22.37;20.07;;;12.90;99.90;;;;;;5114365;28;20227;-77
2022/05/01 08:59:11;;;;;;;23.47;21.03;;;12.90;99.90;;;;;;5113995;28;20199;-78
2022/05/01 09:01:39;;;;;;;21.07;18.93;;;12.80;99.90;;;;;;5114560;28;20532;-77
2022/05/01 09:04:08;;;;;;;21.37;19.23;;;12.90;99.90;;;;;;5113805;28;20254;-77
2022/05/01 09:06:38;;;;;;;23.47;20.53;;;13.10;99.90;;;;;;5114003;28;20264;-77
2022/05/01 09:09:05;;;;;;;22.20;19.83;;;13.10;99.90;;;;;;5114464;28;20606;-81
2022/05/01 09:14:17;;;;;;;21.63;19.27;;;13.90;99.90;;;;;;5114549;28;20550;-78
2022/05/01 09:17:15;;;;;;;20.97;18.87;;;14.20;99.90;;;;;;5113940;28;20192;-78
2022/05/01 09:19:41;;;;;;;20.80;18.60;;;14.00;99.90;;;;;;5113668;28;20195;-79
2022/05/01 09:22:08;;;;;;;19.90;18.00;;;14.60;99.90;;;;;;5113717;28;20203;-78
2022/05/01 09:24:35;;;;;;;21.45;19.38;;;15.40;99.90;;;;;;5113630;28;20215;-78
2022/05/01 09:27:02;;;;;;;21.42;19.35;;;14.80;99.90;;;;;;5112872;28;20195;-78
2022/05/01 09:29:34;;;;;;;22.20;20.03;;;13.90;99.90;;;;;;5119106;28;20253;-77
2022/05/01 09:32:03;;;;;;;22.67;20.17;;;13.50;99.90;;;;;;5119100;28;20585;-77
2022/05/01 09:34:31;;;;;;;21.90;19.67;;;13.30;99.90;;;;;;5119887;28;20199;-79
2022/05/01 09:37:00;;;;;;;21.43;19.23;;;13.10;99.90;;;;;;5118092;28;20621;-78
2022/05/01 09:39:28;;;;;;;20.70;18.70;;;13.60;99.90;;;;;;5117434;28;20207;-77
2022/05/01 09:41:55;;;;;;;21.57;19.57;;;13.90;99.90;;;;;;5116987;28;20263;-78
2022/05/01 09:44:23;;;;;;;21.70;19.50;;;14.10;99.90;;;;;;5113695;28;20260;-81
2022/05/01 09:46:52;;;;;;;20.63;18.50;;;14.70;99.90;;;;;;5113612;28;20192;-80
2022/05/01 09:49:19;;;;;;;21.53;19.23;;;14.70;99.90;;;;;;5114042;28;20234;-78
2022/05/01 09:51:53;;;;;;;20.20;18.23;;;14.60;99.90;;;;;;5113720;28;20204;-78
2022/05/01 09:54:22;;;;;;;20.63;18.52;;;15.30;99.90;;;;;;5112745;28;21004;-75
2022/05/01 09:56:50;;;;;;;20.75;18.65;;;16.20;99.90;;;;;;5111755;28;20192;-77
2022/05/01 09:59:18;;;;;;;19.67;17.23;;;16.80;99.90;;;;;;5112105;28;20645;-77
2022/05/01 10:01:58;;;;;;;18.38;16.58;;;16.90;99.90;;;;;;5114528;28;20199;-78
2022/05/01 10:04:25;;;;;;;19.58;17.70;;;16.90;99.90;;;;;;5125002;28;20608;-84
2022/05/01 10:06:53;;;;;;;17.60;15.98;;;16.70;99.90;;;;;;5113723;28;20324;-76
2022/05/01 10:09:20;;;;;;;16.55;15.05;;;16.60;99.90;;;;;;5113256;28;20728;-82
2022/05/01 10:11:49;;;;;;;17.85;16.15;;;16.80;99.90;;;;;;5112889;28;20218;-78
2022/05/01 10:14:19;;;;;;;19.45;16.80;;;17.20;99.90;;;;;;5113182;28;20256;-80
2022/05/01 10:16:46;;;;;;;18.17;16.58;;;17.30;99.90;;;;;;5113142;28;20225;-79
2022/05/01 10:19:15;;;;;;;19.25;17.27;;;17.10;99.90;;;;;;5111648;28;20192;-79
2022/05/01 10:21:46;;;;;;;18.88;17.10;;;16.70;99.90;;;;;;5113056;28;20203;-84
2022/05/01 10:24:13;;;;;;;17.77;16.08;;;16.60;99.90;;;;;;5128842;27;20191;-76
2022/05/01 10:26:46;;;;;;;17.90;16.13;;;16.90;99.90;;;;;;5136818;27;20275;-88
2022/05/01 10:29:35;;;;;;;17.00;15.50;;;17.50;99.90;;;;;;5116589;28;20234;-80
2022/05/01 10:32:22;;;;;;;15.70;14.30;;;17.50;99.90;;;;;;5116482;28;20200;-81
2022/05/01 10:35:29;;;;;;;16.25;14.75;;;17.00;99.90;;;;;;5116224;28;20223;-82
2022/05/01 10:38:23;;;;;;;16.42;14.90;;;18.00;99.90;;;;;;5104894;28;20196;-80
2022/05/01 10:40:52;;;;;;;15.65;14.23;;;19.10;99.90;;;;;;5116158;28;20200;-76
2022/05/01 10:43:24;;;;;;;16.30;14.90;;;19.30;97.00;;;;;;5116193;28;20200;-75
2022/05/01 10:45:52;;;;;;;15.45;14.05;;;18.50;96.90;;;;;;5120444;28;20230;-75
2022/05/01 10:48:30;;;;;;;14.82;13.52;;;18.00;99.20;;;;;;5115862;28;20208;-75
2022/05/01 10:51:37;;;;;;;14.15;12.85;;;18.10;99.80;;;;;;5116430;28;20224;-80
2022/05/01 10:54:33;;;;;;;14.80;13.48;;;19.60;94.40;;;;;;5115936;28;20199;-79
2022/05/01 10:57:07;;;;;;;14.70;13.27;;;19.70;87.00;;;;;;5116091;28;20630;-79
2022/05/01 10:59:35;;;;;;;15.55;14.15;;;20.10;83.10;;;;;;5115727;28;20198;-78
2022/05/01 11:02:03;;;;;;;14.98;13.57;;;20.30;81.80;;;;;;5116016;28;20229;-78
2022/05/01 11:04:32;;;;;;;13.40;12.20;;;21.00;80.20;;;;;;5115844;28;20663;-79
2022/05/01 11:07:03;;;;;;;14.35;13.10;;;20.90;75.30;;;;;;5115836;28;20572;-78
2022/05/01 11:09:35;;;;;;;14.07;12.88;;;20.60;70.90;;;;;;5117353;28;20199;-77
2022/05/01 11:12:03;;;;;;;13.50;12.18;;;20.20;67.90;;;;;;5117321;28;20191;-81
2022/05/01 11:14:39;;;;;;;14.15;12.82;;;20.00;64.30;;;;;;5118754;28;20200;-79
2022/05/01 11:17:12;;;;;;;13.32;12.20;;;19.40;66.70;;;;;;5124548;28;20199;-90
2022/05/01 11:19:46;;;;;;;12.05;11.05;;;20.50;64.10;;;;;;5102063;28;20692;-83
2022/05/01 11:22:14;;;;;;;11.90;10.75;;;21.40;58.90;;;;;;5118232;28;20199;-82
2022/05/01 11:24:42;;;;;;;12.20;11.10;;;22.80;57.80;;;;;;5117826;28;20721;-82
2022/05/01 11:27:16;;;;;;;10.73;9.93;;;24.30;51.90;;;;;;5118635;28;20316;-83
2022/05/01 11:30:22;;;;;;;12.57;11.57;;;24.00;47.40;;;;;;5118385;28;20607;-84
2022/05/01 11:32:50;;;;;;;12.18;11.07;;;21.50;48.20;;;;;;5115166;28;20286;-84
2022/05/01 11:35:18;;;;;;;12.57;11.35;;;20.10;53.10;;;;;;5119402;28;20206;-84
2022/05/01 11:38:06;;;;;;;15.10;13.60;;;19.60;56.00;;;;;;5119007;28;20202;-82
2022/05/01 11:40:33;;;;;;;14.93;13.63;;;18.90;57.60;;;;;;5118936;28;20196;-83
2022/05/01 11:43:15;;;;;;;13.77;12.43;;;18.70;62.70;;;;;;5118345;28;20195;-84
2022/05/01 11:45:42;;;;;;;14.18;12.88;;;18.40;62.20;;;;;;5118101;28;20310;-84
2022/05/01 11:48:14;;;;;;;13.60;12.27;;;17.90;65.80;;;;;;5118242;28;20191;-83
2022/05/01 11:50:42;;;;;;;14.35;12.95;;;17.90;70.30;;;;;;5119156;28;20191;-84
2022/05/01 11:53:18;;;;;;;15.77;13.93;;;17.80;73.50;;;;;;5118833;28;20195;-85
2022/05/01 12:04:17;;;;;;;14.15;12.88;;;16.70;89.20;;;;;;5115543;28;20191;-88
2022/05/01 12:06:45;;;;;;;13.65;12.45;;;16.90;91.70;;;;;;5114422;28;20709;-88
2022/05/01 12:09:17;;;;;;;13.52;12.23;;;17.10;91.00;;;;;;5115495;28;20200;-85
2022/05/01 12:11:46;;;;;;;13.82;12.55;;;17.20;91.30;;;;;;5115039;28;20200;-84
2022/05/01 12:14:14;;;;;;;14.32;13.02;;;17.20;90.50;;;;;;5114699;28;20195;-85
2022/05/01 12:16:41;;;;;;;14.00;12.38;;;17.00;92.10;;;;;;5114948;28;20199;-86
2022/05/01 12:19:08;;;;;;;16.08;14.57;;;16.90;93.20;;;;;;5114717;28;20596;-88
2022/05/01 12:21:36;;;;;;;16.17;14.50;;;16.50;98.70;;;;;;5115219;28;20304;-88
2022/05/01 12:24:04;;;;;;;16.95;15.23;;;16.00;99.90;;;;;;5115675;28;20195;-88
2022/05/01 12:26:40;;;;;;;17.80;16.10;;;16.20;99.90;;;;;;5115411;28;20224;-88
2022/05/01 12:29:11;;;;;;;16.27;14.77;;;16.30;99.90;;;;;;5114764;28;20642;-87
2022/05/01 12:32:11;;;;;;;14.82;13.45;;;16.60;99.90;;;;;;5115252;28;20245;-86
2022/05/01 12:34:40;;;;;;;15.10;13.68;;;16.90;99.90;;;;;;5032057;28;20194;-86
2022/05/01 12:37:12;;;;;;;15.90;14.32;;;16.80;99.90;;;;;;5032156;28;20206;-87
2022/05/01 12:39:39;;;;;;;15.73;14.20;;;16.60;99.90;;;;;;5074439;28;20225;-86
2022/05/01 12:45:07;;;;;;;16.33;14.80;;;16.30;99.90;;;;;;5116920;28;20555;-88
2022/05/01 12:47:36;;;;;;;15.15;13.75;;;15.90;99.90;;;;;;5115734;28;20200;-89
2022/05/01 12:50:04;;;;;;;15.05;13.63;;;16.10;99.90;;;;;;5114555;28;20232;-87
2022/05/01 12:52:31;;;;;;;17.70;14.30;;;16.20;99.90;;;;;;5114504;28;20195;-87
2022/05/01 12:55:16;;;;;;;16.02;14.55;;;16.50;99.90;;;;;;5115379;28;20198;-87
2022/05/01 12:57:50;;;;;;;15.15;13.75;;;17.20;99.80;;;;;;5116971;28;20245;-87
2022/05/01 13:00:34;;;;;;;14.75;13.35;;;17.40;97.70;;;;;;5114817;28;20195;-87
2022/05/01 13:03:19;;;;;;;14.23;12.93;;;17.20;98.90;;;;;;5115639;28;20291;-86
2022/05/01 13:06:02;;;;;;;14.40;13.00;;;17.20;97.70;;;;;;5115536;28;20694;-86
2022/05/01 13:08:31;;;;;;;13.98;12.57;;;17.30;98.40;;;;;;5116308;28;20211;-87
2022/05/01 13:11:12;;;;;;;13.70;12.38;;;17.40;98.70;;;;;;5115128;28;20293;-87
2022/05/01 13:13:46;;;;;;;14.77;13.07;;;17.20;98.10;;;;;;5120184;28;20203;-89
2022/05/01 13:16:13;;;;;;;14.18;12.88;;;16.90;99.40;;;;;;5116353;28;20196;-88